Time;durP1;ratioP1;P1;durP2;ratioP2;P2;SDS_P1;SDS_P2;PMS_P1;PMS_P2;Temp;Humidity;BMP_temperature;BMP_pressure;BME280_temperature;BME280_humidity;BME280_pressure;Samples;Min_cycle;Max_cycle;Signal;HPM_P1;HPM_P2
2022/09/16 00:01:16;;;;;;;4.07;0.60;;;14.30;93.60;;;;;;5040700;28;20041;-57
2022/09/16 00:03:43;;;;;;;0.70;0.30;;;14.30;93.70;;;;;;5046402;28;20017;-58
2022/09/16 00:06:23;;;;;;;2.63;0.40;;;14.20;93.70;;;;;;5045993;28;20112;-57
2022/09/16 00:08:49;;;;;;;1.05;0.30;;;14.20;93.80;;;;;;5045675;28;20064;-57
2022/09/16 00:11:16;;;;;;;2.45;0.43;;;14.20;94.00;;;;;;5045012;28;20418;-58
2022/09/16 00:13:41;;;;;;;2.90;0.40;;;14.20;94.20;;;;;;5044688;28;20025;-57
2022/09/16 00:16:16;;;;;;;3.28;0.98;;;14.10;94.30;;;;;;5050311;28;20036;-57
2022/09/16 00:18:41;;;;;;;1.70;0.40;;;14.10;94.40;;;;;;5047976;28;20028;-58
2022/09/16 00:21:08;;;;;;;1.67;0.30;;;14.10;94.40;;;;;;5055470;28;20029;-58
2022/09/16 00:23:34;;;;;;;0.68;0.25;;;14.10;94.40;;;;;;5040443;28;20029;-58
2022/09/16 00:26:00;;;;;;;1.02;0.30;;;14.00;94.40;;;;;;5046891;28;20392;-58
2022/09/16 00:28:26;;;;;;;2.58;0.25;;;14.10;94.40;;;;;;5039709;28;20029;-57
2022/09/16 00:30:58;;;;;;;1.25;0.20;;;14.10;94.40;;;;;;5053192;28;20427;-58
2022/09/16 00:33:23;;;;;;;0.90;0.20;;;14.10;94.40;;;;;;5041104;28;20070;-58
2022/09/16 00:35:49;;;;;;;3.05;0.95;;;14.10;94.40;;;;;;5055083;28;20033;-57
2022/09/16 00:38:15;;;;;;;1.83;0.30;;;14.10;94.40;;;;;;5044738;28;20029;-58
2022/09/16 00:40:45;;;;;;;0.98;0.30;;;14.10;94.40;;;;;;5045898;28;20072;-58
2022/09/16 00:43:14;;;;;;;4.63;0.50;;;14.10;94.40;;;;;;5042572;28;20017;-58
2022/09/16 00:45:41;;;;;;;;;;;14.10;94.40;;;;;;5043910;28;20041;-58
2022/09/16 00:48:11;;;;;;;1.13;0.20;;;14.10;94.40;;;;;;5045124;28;20003;-57
2022/09/16 00:50:45;;;;;;;2.40;0.30;;;14.00;94.50;;;;;;5047282;28;20098;-57
2022/09/16 00:53:16;;;;;;;2.35;0.30;;;14.10;94.60;;;;;;5045494;28;20087;-58
2022/09/16 00:55:43;;;;;;;1.65;0.35;;;14.00;94.60;;;;;;5056923;28;20396;-58
2022/09/16 00:58:41;;;;;;;2.83;0.50;;;14.00;94.70;;;;;;5045054;28;20484;-55
2022/09/16 01:01:06;;;;;;;0.70;0.30;;;14.10;94.80;;;;;;5042357;28;20074;-58
2022/09/16 01:03:38;;;;;;;1.80;0.40;;;14.00;94.80;;;;;;5039954;28;20033;-58
2022/09/16 01:06:05;;;;;;;1.13;0.30;;;14.00;94.90;;;;;;5054709;28;20047;-57
2022/09/16 01:08:30;;;;;;;1.45;0.45;;;14.00;94.90;;;;;;5046678;28;20388;-57
2022/09/16 01:10:56;;;;;;;5.70;0.73;;;14.00;95.10;;;;;;5050177;28;20017;-55
2022/09/16 01:13:22;;;;;;;2.35;0.40;;;14.00;95.20;;;;;;5044663;28;20096;-57
2022/09/16 01:16:28;;;;;;;2.97;0.43;;;14.00;95.30;;;;;;5036505;28;20524;-57
2022/09/16 01:19:42;;;;;;;3.42;0.60;;;14.00;95.30;;;;;;5066071;28;20480;-57
2022/09/16 01:22:30;;;;;;;3.00;0.60;;;14.00;95.30;;;;;;5040295;28;20067;-57
2022/09/16 01:25:09;;;;;;;2.00;0.50;;;13.90;95.50;;;;;;5042954;28;20036;-57
2022/09/16 01:27:44;;;;;;;2.42;0.47;;;13.90;95.60;;;;;;5049171;28;20024;-57
2022/09/16 01:30:28;;;;;;;0.73;0.30;;;13.90;95.60;;;;;;5060629;28;20017;-57
2022/09/16 01:33:36;;;;;;;2.75;0.57;;;13.90;95.60;;;;;;5044357;28;20108;-57
2022/09/16 01:36:20;;;;;;;2.13;0.65;;;13.90;95.70;;;;;;5012690;28;20540;-57
2022/09/16 01:39:11;;;;;;;1.65;0.57;;;13.80;95.90;;;;;;5050753;28;20029;-57
2022/09/16 01:41:39;;;;;;;2.60;0.57;;;13.80;95.90;;;;;;5038234;28;20087;-58
2022/09/16 01:44:21;;;;;;;1.75;0.50;;;13.80;96.10;;;;;;5046369;28;20025;-58
2022/09/16 01:47:12;;;;;;;4.60;0.60;;;13.80;96.10;;;;;;5045997;28;20028;-57
2022/09/16 01:49:59;;;;;;;2.67;0.55;;;13.80;96.20;;;;;;5063434;28;20431;-57
2022/09/16 01:52:43;;;;;;;2.22;0.63;;;13.80;96.30;;;;;;5038547;28;20021;-57
2022/09/16 01:55:17;;;;;;;3.90;0.90;;;13.80;96.50;;;;;;5048068;28;20131;-57
2022/09/16 01:57:54;;;;;;;2.17;0.50;;;13.70;96.70;;;;;;5051592;28;20028;-57
2022/09/16 02:00:20;;;;;;;2.17;0.60;;;13.70;96.80;;;;;;5047767;28;20053;-56
2022/09/16 02:03:08;;;;;;;2.88;0.70;;;13.60;96.90;;;;;;5046734;28;20107;-57
2022/09/16 02:05:35;;;;;;;4.85;1.25;;;13.60;97.10;;;;;;5047619;28;20107;-57
2022/09/16 02:08:09;;;;;;;2.28;0.50;;;13.60;97.30;;;;;;5040971;28;20017;-57
2022/09/16 02:10:45;;;;;;;2.85;0.70;;;13.60;97.40;;;;;;5046612;28;20032;-56
2022/09/16 02:13:29;;;;;;;2.67;0.65;;;13.60;97.40;;;;;;5051055;28;20025;-56
2022/09/16 02:16:00;;;;;;;1.63;0.52;;;13.60;97.50;;;;;;5051081;28;20067;-57
2022/09/16 02:18:32;;;;;;;2.38;0.55;;;13.60;97.50;;;;;;5045593;28;20063;-57
2022/09/16 02:21:02;;;;;;;1.60;0.40;;;13.60;97.50;;;;;;5046286;28;20021;-57
2022/09/16 02:23:38;;;;;;;2.90;0.57;;;13.60;97.50;;;;;;5059267;28;20029;-57
2022/09/16 02:26:08;;;;;;;3.05;0.60;;;13.60;97.50;;;;;;5048093;28;20033;-56
2022/09/16 02:28:40;;;;;;;2.60;0.65;;;13.60;97.60;;;;;;5049458;28;20017;-56
2022/09/16 02:31:08;;;;;;;1.75;0.40;;;13.60;97.60;;;;;;5044894;28;20028;-57
2022/09/16 02:33:59;;;;;;;2.53;0.47;;;13.60;97.60;;;;;;5034238;28;20013;-55
2022/09/16 02:36:26;;;;;;;4.00;0.40;;;13.60;97.60;;;;;;5044134;28;20503;-57
2022/09/16 02:39:08;;;;;;;3.42;0.70;;;13.60;97.70;;;;;;5040388;28;20060;-58
2022/09/16 02:41:35;;;;;;;2.13;0.35;;;13.60;97.60;;;;;;5042878;28;20041;-58
2022/09/16 02:44:02;;;;;;;2.97;0.60;;;13.60;97.70;;;;;;5032906;28;20033;-57
2022/09/16 02:46:57;;;;;;;3.05;0.65;;;13.60;97.70;;;;;;5044827;28;20467;-57
2022/09/16 02:49:55;;;;;;;3.05;0.50;;;13.60;97.70;;;;;;5021022;28;20029;-56
2022/09/16 02:52:44;;;;;;;2.05;0.40;;;13.60;97.70;;;;;;5041628;28;20017;-57
2022/09/16 02:55:36;;;;;;;1.10;0.40;;;13.60;97.80;;;;;;5044536;28;20477;-58
2022/09/16 02:58:03;;;;;;;2.45;0.50;;;13.50;97.80;;;;;;5042938;28;20072;-58
2022/09/16 03:00:32;;;;;;;1.58;0.43;;;13.50;97.90;;;;;;5040135;28;20078;-57
2022/09/16 03:02:57;;;;;;;3.17;0.50;;;13.50;98.00;;;;;;5045697;28;20031;-58
2022/09/16 03:05:32;;;;;;;1.30;0.45;;;13.50;98.00;;;;;;5059228;28;20025;-57
2022/09/16 03:08:01;;;;;;;4.28;0.80;;;13.50;98.10;;;;;;5046876;28;20028;-58
2022/09/16 03:10:35;;;;;;;1.63;0.50;;;13.40;98.20;;;;;;5053873;28;20024;-56
2022/09/16 03:13:14;;;;;;;1.33;0.40;;;13.40;98.20;;;;;;5034648;28;20025;-58
2022/09/16 03:16:12;;;;;;;2.42;0.77;;;13.40;98.20;;;;;;5057050;28;20021;-57
2022/09/16 03:19:01;;;;;;;2.38;0.70;;;13.40;98.30;;;;;;5049918;28;20027;-58
2022/09/16 03:21:58;;;;;;;5.15;0.70;;;13.30;98.50;;;;;;5043344;28;20021;-57
2022/09/16 03:24:42;;;;;;;2.75;0.50;;;13.30;98.50;;;;;;5045853;28;20409;-57
2022/09/16 03:27:19;;;;;;;2.40;0.80;;;13.30;98.60;;;;;;5061556;28;20032;-58
2022/09/16 03:29:55;;;;;;;3.50;1.00;;;13.40;98.60;;;;;;5047523;28;20021;-57
2022/09/16 03:32:26;;;;;;;2.50;0.60;;;13.40;98.60;;;;;;5044423;28;20017;-58
2022/09/16 03:35:03;;;;;;;2.15;0.80;;;13.30;98.70;;;;;;5046545;28;20033;-58
2022/09/16 03:37:33;;;;;;;3.25;0.82;;;13.30;98.80;;;;;;5062825;28;20017;-57
2022/09/16 03:40:02;;;;;;;4.18;0.70;;;13.30;98.90;;;;;;5049235;28;20521;-57
2022/09/16 03:42:27;;;;;;;2.40;1.43;;;13.20;99.00;;;;;;5043990;28;20472;-58
2022/09/16 03:44:53;;;;;;;3.67;1.02;;;13.20;99.00;;;;;;5044224;28;20029;-56
2022/09/16 03:47:19;;;;;;;2.97;0.80;;;13.20;99.10;;;;;;5055361;28;20472;-57
2022/09/16 03:49:44;;;;;;;2.45;0.70;;;13.30;99.20;;;;;;5044258;28;20024;-57
2022/09/16 03:52:10;;;;;;;2.50;0.68;;;13.30;99.20;;;;;;5060969;28;20017;-56
2022/09/16 03:54:36;;;;;;;2.38;0.80;;;13.30;99.20;;;;;;5039026;28;20025;-57
2022/09/16 03:57:02;;;;;;;3.78;0.90;;;13.30;99.30;;;;;;5053229;28;20391;-56
2022/09/16 03:59:28;;;;;;;3.35;0.75;;;13.30;99.30;;;;;;5046364;28;20501;-57
2022/09/16 04:01:55;;;;;;;3.83;0.60;;;13.30;99.30;;;;;;5044352;28;20025;-57
2022/09/16 04:04:20;;;;;;;3.67;0.63;;;13.30;99.30;;;;;;5044387;28;20028;-58
2022/09/16 04:06:46;;;;;;;1.73;0.68;;;13.40;99.30;;;;;;5044240;28;20025;-58
2022/09/16 04:09:12;;;;;;;2.28;0.70;;;13.30;99.30;;;;;;5044434;28;20029;-57
2022/09/16 04:11:39;;;;;;;3.28;0.70;;;13.30;99.20;;;;;;5038740;28;20025;-57
2022/09/16 04:14:05;;;;;;;2.67;0.60;;;13.30;99.30;;;;;;5041308;28;20051;-56
2022/09/16 04:16:32;;;;;;;1.83;0.73;;;13.30;99.30;;;;;;5040305;28;20160;-58
2022/09/16 04:18:58;;;;;;;2.95;0.60;;;13.30;99.30;;;;;;5045957;28;20029;-56
2022/09/16 04:21:24;;;;;;;2.63;0.70;;;13.30;99.40;;;;;;5054637;28;20051;-58
2022/09/16 04:23:50;;;;;;;3.20;0.70;;;13.20;99.30;;;;;;5043378;28;20472;-58
2022/09/16 04:26:16;;;;;;;2.15;0.73;;;13.20;99.30;;;;;;5048587;28;20028;-58
2022/09/16 04:28:42;;;;;;;1.05;0.50;;;13.30;99.40;;;;;;5040411;28;20159;-57
2022/09/16 04:31:11;;;;;;;2.45;0.60;;;13.20;99.40;;;;;;5061231;28;20127;-57
2022/09/16 04:33:37;;;;;;;2.90;0.60;;;13.20;99.40;;;;;;5042137;28;20032;-57
2022/09/16 04:36:03;;;;;;;1.63;0.60;;;13.20;99.40;;;;;;5055703;28;20028;-57
2022/09/16 04:38:28;;;;;;;1.45;0.47;;;13.20;99.50;;;;;;5047024;28;20044;-58
2022/09/16 04:41:04;;;;;;;2.05;0.70;;;13.20;99.60;;;;;;5043773;28;20413;-58
2022/09/16 04:43:30;;;;;;;3.22;1.02;;;13.20;99.60;;;;;;5039670;28;20532;-57
2022/09/16 04:45:55;;;;;;;4.85;0.70;;;13.10;99.70;;;;;;5043289;28;20150;-58
2022/09/16 04:48:21;;;;;;;0.85;0.45;;;13.10;99.80;;;;;;5045671;28;20386;-58
2022/09/16 04:50:47;;;;;;;3.05;0.77;;;13.10;99.80;;;;;;5048464;28;20469;-56
2022/09/16 04:53:12;;;;;;;2.83;0.70;;;13.10;99.90;;;;;;5048655;28;20484;-57
2022/09/16 04:55:38;;;;;;;2.40;0.60;;;13.00;99.90;;;;;;5043536;28;20040;-55
2022/09/16 04:58:03;;;;;;;1.70;0.70;;;13.10;99.90;;;;;;5040887;28;20069;-57
2022/09/16 05:00:29;;;;;;;2.72;0.50;;;13.10;99.90;;;;;;5044032;28;20033;-55
2022/09/16 05:02:55;;;;;;;3.63;0.50;;;13.10;99.90;;;;;;5037087;28;20534;-56
2022/09/16 05:05:21;;;;;;;1.80;0.40;;;13.10;99.90;;;;;;5043957;28;20525;-57
2022/09/16 05:07:46;;;;;;;2.25;0.50;;;13.10;99.90;;;;;;5035216;28;20108;-57
2022/09/16 05:10:12;;;;;;;3.28;0.50;;;13.10;99.90;;;;;;5048377;28;20147;-57
2022/09/16 05:12:37;;;;;;;2.75;0.52;;;13.10;99.90;;;;;;5050264;28;20504;-54
2022/09/16 05:15:04;;;;;;;2.53;0.50;;;13.10;99.90;;;;;;5050538;28;20488;-55
2022/09/16 05:17:30;;;;;;;2.75;0.50;;;13.20;99.90;;;;;;5050227;28;20159;-57
2022/09/16 05:19:56;;;;;;;2.60;0.52;;;13.10;99.90;;;;;;5051832;28;20062;-56
2022/09/16 05:22:22;;;;;;;1.13;0.30;;;13.10;99.90;;;;;;5051796;28;20446;-58
2022/09/16 05:24:47;;;;;;;1.27;0.47;;;13.10;99.90;;;;;;5051715;28;20950;-57
2022/09/16 05:27:13;;;;;;;1.77;0.40;;;13.10;99.90;;;;;;5051446;28;20017;-57
2022/09/16 05:29:44;;;;;;;1.58;0.30;;;13.10;99.90;;;;;;5051625;28;20025;-56
2022/09/16 05:32:09;;;;;;;1.85;0.40;;;13.10;99.90;;;;;;5051124;28;20493;-58
2022/09/16 05:34:36;;;;;;;2.60;0.30;;;13.10;99.90;;;;;;5049650;28;20207;-56
2022/09/16 05:37:02;;;;;;;0.47;0.22;;;13.10;99.90;;;;;;5050322;28;20482;-57
2022/09/16 05:39:27;;;;;;;1.33;0.30;;;13.10;99.90;;;;;;5040489;28;20031;-57
2022/09/16 05:41:56;;;;;;;1.13;0.30;;;13.10;99.90;;;;;;5036285;28;20045;-58
2022/09/16 05:44:21;;;;;;;1.67;0.30;;;13.10;99.90;;;;;;5049723;28;20052;-58
2022/09/16 05:46:47;;;;;;;2.00;0.32;;;13.10;99.90;;;;;;5038993;28;20021;-58
2022/09/16 05:49:13;;;;;;;1.65;0.30;;;13.00;99.90;;;;;;5050419;28;20497;-57
2022/09/16 05:51:42;;;;;;;1.48;0.30;;;13.00;99.90;;;;;;5049918;28;20028;-58
2022/09/16 05:54:08;;;;;;;0.68;0.30;;;13.00;99.90;;;;;;5051585;28;20100;-57
2022/09/16 05:56:33;;;;;;;1.70;0.40;;;12.90;99.90;;;;;;5054127;28;20116;-58
2022/09/16 05:59:00;;;;;;;1.35;0.30;;;13.00;99.90;;;;;;5042650;28;20551;-57
2022/09/16 06:01:28;;;;;;;0.95;0.30;;;13.00;99.90;;;;;;5033946;28;20083;-58
2022/09/16 06:03:54;;;;;;;0.52;0.20;;;13.00;99.90;;;;;;5036439;28;20109;-58
2022/09/16 06:06:23;;;;;;;0.90;0.30;;;13.00;99.90;;;;;;5042338;28;20055;-57
2022/09/16 06:08:50;;;;;;;2.03;0.30;;;13.10;99.90;;;;;;5048380;28;20087;-57
2022/09/16 06:11:16;;;;;;;1.67;0.20;;;13.10;99.90;;;;;;5047277;28;20025;-57
2022/09/16 06:13:41;;;;;;;1.27;0.22;;;13.10;99.80;;;;;;5049687;28;20385;-57
2022/09/16 06:16:09;;;;;;;1.33;0.30;;;13.20;99.80;;;;;;5053798;28;20040;-58
2022/09/16 06:18:35;;;;;;;1.10;0.30;;;13.20;99.80;;;;;;5053764;28;20017;-57
2022/09/16 06:21:07;;;;;;;0.70;0.30;;;13.20;99.90;;;;;;5053395;28;20020;-57
2022/09/16 06:23:34;;;;;;;1.55;0.40;;;13.20;99.90;;;;;;5054693;28;20435;-57
2022/09/16 06:26:05;;;;;;;2.90;0.50;;;13.20;99.90;;;;;;5051885;28;20025;-56
2022/09/16 06:28:30;;;;;;;1.67;0.30;;;13.30;99.90;;;;;;5052865;28;20017;-57
2022/09/16 06:31:06;;;;;;;1.77;0.40;;;13.30;99.90;;;;;;5053328;28;20044;-57
2022/09/16 06:33:33;;;;;;;2.15;0.40;;;13.40;99.90;;;;;;5043323;28;20059;-55
2022/09/16 06:36:07;;;;;;;1.70;0.40;;;13.30;99.90;;;;;;5052801;28;20021;-57
2022/09/16 06:38:33;;;;;;;2.60;0.52;;;13.40;99.90;;;;;;5049917;28;20032;-57
2022/09/16 06:41:07;;;;;;;3.00;0.50;;;13.40;99.90;;;;;;5051030;28;20052;-56
2022/09/16 06:43:33;;;;;;;2.65;0.60;;;13.30;99.90;;;;;;5040829;28;20021;-57
2022/09/16 06:46:01;;;;;;;1.75;0.40;;;13.30;99.90;;;;;;5061678;28;20028;-57
2022/09/16 06:48:27;;;;;;;2.60;0.30;;;13.30;99.90;;;;;;5043352;28;20017;-57
2022/09/16 06:51:04;;;;;;;3.03;0.40;;;13.30;99.90;;;;;;5044491;28;20035;-56
2022/09/16 06:53:30;;;;;;;1.63;0.68;;;13.30;99.90;;;;;;5052615;28;20083;-57
2022/09/16 06:56:04;;;;;;;1.63;0.40;;;13.30;99.90;;;;;;5051093;28;20025;-57
2022/09/16 06:58:34;;;;;;;2.33;0.32;;;13.30;99.90;;;;;;5050379;28;20029;-57
2022/09/16 07:01:17;;;;;;;2.17;0.40;;;13.30;99.90;;;;;;5052424;28;20114;-57
2022/09/16 07:03:46;;;;;;;2.17;0.40;;;13.30;99.90;;;;;;5052560;28;20025;-55
2022/09/16 07:06:13;;;;;;;2.80;0.63;;;13.30;99.90;;;;;;5052365;28;20552;-57
2022/09/16 07:08:40;;;;;;;2.60;0.70;;;13.30;99.90;;;;;;5052678;28;20473;-57
2022/09/16 07:11:15;;;;;;;4.55;0.50;;;13.30;99.90;;;;;;5046235;28;20025;-57
2022/09/16 07:13:41;;;;;;;2.55;0.47;;;13.30;99.90;;;;;;5053601;28;20028;-57
2022/09/16 07:16:10;;;;;;;1.63;0.40;;;13.30;99.90;;;;;;5051456;28;20037;-57
2022/09/16 07:18:36;;;;;;;1.52;0.45;;;13.30;99.90;;;;;;5051015;28;20095;-57
2022/09/16 07:21:13;;;;;;;1.90;0.52;;;13.30;99.90;;;;;;5052327;28;20045;-57
2022/09/16 07:23:40;;;;;;;1.92;0.40;;;13.40;99.90;;;;;;5052561;28;20021;-58
2022/09/16 07:26:10;;;;;;;1.02;0.30;;;13.40;99.90;;;;;;5051978;28;20061;-56
2022/09/16 07:28:37;;;;;;;4.32;0.40;;;13.40;99.90;;;;;;5050900;28;20588;-57
2022/09/16 07:31:06;;;;;;;1.80;0.50;;;13.50;99.90;;;;;;5051915;28;20022;-57
2022/09/16 07:33:36;;;;;;;1.95;0.40;;;13.50;99.90;;;;;;5048102;28;20021;-57
2022/09/16 07:36:04;;;;;;;2.03;0.43;;;13.60;99.90;;;;;;5053252;28;20489;-57
2022/09/16 07:38:30;;;;;;;1.30;0.40;;;13.60;99.90;;;;;;5050910;28;20158;-57
2022/09/16 07:41:02;;;;;;;1.38;0.30;;;13.70;99.90;;;;;;5034339;28;20056;-57
2022/09/16 07:43:28;;;;;;;1.60;0.40;;;13.80;99.90;;;;;;5044674;28;20025;-57
2022/09/16 07:45:56;;;;;;;2.38;0.30;;;13.80;99.90;;;;;;5051951;28;20040;-56
2022/09/16 07:48:22;;;;;;;3.20;0.40;;;13.90;99.90;;;;;;5049758;28;20021;-57
2022/09/16 07:50:57;;;;;;;2.13;0.30;;;14.00;99.90;;;;;;5049426;28;20020;-57
2022/09/16 07:53:23;;;;;;;1.95;0.40;;;14.00;99.90;;;;;;5050152;28;20460;-54
2022/09/16 07:55:54;;;;;;;1.27;0.40;;;14.10;99.90;;;;;;5050503;28;20025;-57
2022/09/16 07:58:21;;;;;;;1.92;0.40;;;14.20;99.90;;;;;;5059591;28;20028;-57
2022/09/16 08:00:48;;;;;;;2.33;0.40;;;14.20;99.80;;;;;;5053050;28;20404;-54
2022/09/16 08:03:14;;;;;;;1.58;0.47;;;14.30;99.70;;;;;;5051513;28;20401;-56
2022/09/16 08:05:40;;;;;;;2.30;0.40;;;14.30;99.60;;;;;;5051118;28;20435;-57
2022/09/16 08:08:06;;;;;;;1.75;0.30;;;14.30;99.50;;;;;;5041664;28;20037;-54
2022/09/16 08:10:31;;;;;;;2.15;0.55;;;14.40;99.40;;;;;;5048902;28;20021;-57
2022/09/16 08:12:57;;;;;;;4.15;0.32;;;14.40;99.30;;;;;;5042978;28;20037;-58
2022/09/16 08:15:22;;;;;;;2.30;0.50;;;14.40;99.00;;;;;;5047197;28;20519;-57
2022/09/16 08:17:48;;;;;;;3.83;0.35;;;14.50;98.60;;;;;;5052003;28;20029;-58
2022/09/16 08:20:14;;;;;;;1.60;0.40;;;14.50;98.50;;;;;;5049714;28;20025;-58
2022/09/16 08:22:39;;;;;;;4.18;0.60;;;14.50;98.30;;;;;;5050731;28;20021;-56
2022/09/16 08:25:05;;;;;;;3.70;0.60;;;14.60;98.20;;;;;;5050219;28;20044;-58
2022/09/16 08:27:34;;;;;;;4.22;0.52;;;14.60;98.00;;;;;;5049415;28;20415;-58
2022/09/16 08:30:00;;;;;;;1.30;0.30;;;14.70;97.80;;;;;;5049749;28;20020;-58
2022/09/16 08:32:25;;;;;;;2.05;0.40;;;14.70;97.70;;;;;;5049482;28;20025;-58
2022/09/16 08:34:52;;;;;;;3.70;0.57;;;14.70;97.50;;;;;;5049892;28;20032;-57
2022/09/16 08:37:17;;;;;;;2.75;0.45;;;14.80;97.20;;;;;;5058349;28;20033;-56
2022/09/16 08:39:43;;;;;;;6.78;0.60;;;14.90;96.80;;;;;;5047160;28;20469;-57
2022/09/16 08:42:14;;;;;;;1.88;0.40;;;14.90;96.40;;;;;;5022018;28;20077;-57
2022/09/16 08:44:49;;;;;;;3.20;0.45;;;15.00;96.20;;;;;;5030803;28;20017;-58
2022/09/16 08:48:00;;;;;;;2.50;0.47;;;15.00;96.10;;;;;;5030696;28;20024;-57
2022/09/16 08:50:30;;;;;;;1.83;0.38;;;15.10;95.70;;;;;;5012110;28;20028;-57
2022/09/16 08:52:58;;;;;;;2.05;0.52;;;15.10;95.50;;;;;;5030740;28;20053;-58
2022/09/16 08:55:45;;;;;;;1.27;0.30;;;15.20;95.40;;;;;;5032216;28;20033;-57
2022/09/16 08:58:18;;;;;;;2.88;0.40;;;15.30;95.20;;;;;;5021320;28;20029;-58
2022/09/16 09:00:47;;;;;;;2.15;0.30;;;15.50;94.70;;;;;;5030813;28;20069;-58
2022/09/16 09:03:21;;;;;;;1.92;0.40;;;15.60;94.50;;;;;;5020808;28;20030;-57
2022/09/16 09:05:56;;;;;;;1.63;0.30;;;15.70;94.20;;;;;;5029983;28;20103;-57
2022/09/16 09:08:38;;;;;;;3.90;0.50;;;15.70;93.50;;;;;;5030490;28;20026;-57
2022/09/16 09:11:36;;;;;;;1.73;0.40;;;15.80;92.70;;;;;;5031623;28;20444;-57
2022/09/16 09:14:04;;;;;;;2.13;0.38;;;15.90;92.20;;;;;;5029652;28;20017;-57
2022/09/16 09:16:57;;;;;;;2.72;0.30;;;16.00;91.90;;;;;;5029876;28;20026;-58
2022/09/16 09:19:51;;;;;;;3.95;0.52;;;16.20;91.70;;;;;;5030166;28;20028;-58
2022/09/16 09:22:37;;;;;;;3.42;0.43;;;16.30;91.30;;;;;;5019857;28;20116;-57
2022/09/16 09:25:28;;;;;;;1.73;0.40;;;16.40;91.20;;;;;;5043308;28;20037;-57
2022/09/16 09:27:53;;;;;;;2.28;0.30;;;16.50;90.50;;;;;;5029634;28;20021;-58
2022/09/16 09:30:27;;;;;;;1.13;0.30;;;16.70;89.50;;;;;;5029162;28;20082;-58
2022/09/16 09:33:01;;;;;;;1.27;0.30;;;16.80;87.60;;;;;;5031444;28;20381;-57
2022/09/16 09:36:10;;;;;;;1.27;0.32;;;16.90;86.60;;;;;;5047897;28;20029;-58
2022/09/16 09:38:36;;;;;;;1.77;0.20;;;16.90;86.00;;;;;;5019830;28;20371;-58
2022/09/16 09:41:15;;;;;;;1.23;0.30;;;16.90;86.40;;;;;;5044528;28;20045;-57
2022/09/16 09:43:59;;;;;;;2.20;0.20;;;16.90;86.10;;;;;;5050561;28;20023;-58
2022/09/16 09:46:29;;;;;;;3.08;0.30;;;16.90;85.80;;;;;;5053589;28;20151;-58
2022/09/16 09:49:17;;;;;;;1.27;0.30;;;17.00;85.30;;;;;;5054460;28;20099;-58
2022/09/16 09:52:02;;;;;;;2.13;0.32;;;16.90;84.30;;;;;;5055636;28;20542;-58
2022/09/16 09:54:32;;;;;;;1.67;0.30;;;16.90;82.20;;;;;;5050609;28;20381;-58
2022/09/16 09:57:18;;;;;;;1.27;0.30;;;16.70;81.50;;;;;;5049914;28;20032;-58
2022/09/16 09:59:59;;;;;;;1.30;0.30;;;16.70;81.60;;;;;;5054206;28;20025;-57
2022/09/16 10:02:25;;;;;;;1.20;0.30;;;16.60;81.30;;;;;;5052749;28;20389;-57
2022/09/16 10:04:51;;;;;;;1.38;0.30;;;16.50;81.40;;;;;;5052962;28;20142;-57
2022/09/16 10:07:22;;;;;;;0.40;0.20;;;16.60;81.80;;;;;;5050678;28;20025;-55
2022/09/16 10:09:58;;;;;;;1.92;0.30;;;16.70;82.40;;;;;;5049747;28;20032;-57
2022/09/16 10:12:41;;;;;;;1.05;0.30;;;16.90;82.90;;;;;;5053626;28;20480;-57
2022/09/16 10:15:19;;;;;;;1.05;0.30;;;17.20;82.60;;;;;;5053642;28;20041;-57
2022/09/16 10:17:51;;;;;;;2.08;0.20;;;17.40;81.30;;;;;;5051494;28;20017;-58
2022/09/16 10:20:35;;;;;;;1.98;0.28;;;17.40;80.00;;;;;;5053807;28;20477;-58
2022/09/16 10:23:09;;;;;;;1.42;0.20;;;17.60;79.30;;;;;;5053873;28;20033;-58
2022/09/16 10:25:35;;;;;;;0.80;0.30;;;17.80;79.50;;;;;;5054129;28;20542;-58
2022/09/16 10:28:17;;;;;;;1.30;0.30;;;17.90;79.70;;;;;;5049776;28;20021;-57
2022/09/16 10:30:47;;;;;;;2.88;0.30;;;18.00;79.70;;;;;;5066862;28;20484;-58
2022/09/16 10:33:15;;;;;;;;;;;18.10;80.60;;;;;;5052580;28;20441;-58
2022/09/16 10:36:10;;;;;;;1.48;0.40;;;18.20;80.30;;;;;;5051950;28;20276;-58
2022/09/16 10:38:40;;;;;;;0.60;0.20;;;18.50;79.60;;;;;;5036593;28;20893;-58
2022/09/16 10:41:13;;;;;;;1.65;0.40;;;18.90;79.20;;;;;;5049540;28;20053;-58
2022/09/16 10:43:52;;;;;;;2.67;0.40;;;19.40;78.20;;;;;;5059814;28;20403;-58
2022/09/16 10:46:18;;;;;;;0.75;0.20;;;20.00;77.40;;;;;;5058007;28;20021;-58
2022/09/16 10:48:46;;;;;;;1.10;0.50;;;20.60;75.50;;;;;;5045245;28;20017;-58
2022/09/16 10:51:26;;;;;;;0.77;0.22;;;21.30;73.60;;;;;;5055896;28;20021;-58
2022/09/16 10:54:00;;;;;;;1.58;0.40;;;22.10;72.90;;;;;;5050046;28;20412;-58
2022/09/16 10:56:29;;;;;;;1.15;0.40;;;23.80;68.60;;;;;;5045053;28;20033;-58
2022/09/16 10:59:24;;;;;;;0.60;0.30;;;26.50;62.90;;;;;;5050244;28;20043;-58
2022/09/16 11:02:05;;;;;;;0.73;0.28;;;29.70;55.20;;;;;;5025799;28;20037;-58
2022/09/16 11:05:06;;;;;;;2.03;0.43;;;31.80;50.70;;;;;;5052360;28;20025;-59
2022/09/16 11:07:46;;;;;;;1.38;0.40;;;33.60;45.30;;;;;;5058147;28;20078;-59
2022/09/16 11:10:26;;;;;;;1.67;0.30;;;34.50;41.60;;;;;;5054549;28;20028;-59
2022/09/16 11:13:18;;;;;;;0.98;0.40;;;34.50;39.80;;;;;;5062320;28;20384;-58
2022/09/16 11:15:52;;;;;;;1.05;0.40;;;33.10;40.80;;;;;;5056676;28;20393;-58
2022/09/16 11:18:25;;;;;;;0.95;0.40;;;31.60;40.80;;;;;;5054522;28;20033;-58
2022/09/16 11:21:07;;;;;;;1.08;0.55;;;30.00;42.30;;;;;;5045823;28;20029;-58
2022/09/16 11:23:47;;;;;;;1.38;0.32;;;28.60;43.80;;;;;;5076594;28;20110;-58
2022/09/16 11:26:34;;;;;;;1.98;0.60;;;27.50;45.40;;;;;;5056283;28;20052;-59
2022/09/16 11:29:24;;;;;;;1.05;0.30;;;26.80;46.40;;;;;;5044734;28;20604;-58
2022/09/16 11:32:14;;;;;;;1.38;0.40;;;26.50;46.80;;;;;;5056479;28;20465;-58
2022/09/16 11:34:49;;;;;;;2.47;0.50;;;25.80;47.80;;;;;;5048124;28;20027;-59
2022/09/16 11:37:17;;;;;;;0.90;0.32;;;25.30;49.00;;;;;;5053926;28;20025;-58
2022/09/16 11:39:59;;;;;;;0.77;0.30;;;24.80;49.60;;;;;;5053859;28;20017;-58
2022/09/16 11:42:38;;;;;;;1.27;0.45;;;24.40;49.70;;;;;;5055196;28;20037;-58
2022/09/16 11:45:22;;;;;;;0.95;0.40;;;23.80;50.60;;;;;;5052579;28;20179;-57
2022/09/16 11:48:14;;;;;;;0.35;0.20;;;23.40;51.50;;;;;;5052692;28;20017;-58
2022/09/16 11:51:22;;;;;;;1.52;0.25;;;23.00;52.50;;;;;;5052456;28;20392;-58
2022/09/16 11:54:01;;;;;;;;;;;22.50;53.40;;;;;;5052410;28;20051;-58
2022/09/16 11:56:33;;;;;;;1.17;0.30;;;22.00;54.50;;;;;;5053673;28;19958;-58
2022/09/16 11:59:26;;;;;;;1.05;0.30;;;21.60;55.90;;;;;;5052646;28;20032;-58
2022/09/16 12:02:13;;;;;;;2.22;0.50;;;21.40;56.40;;;;;;5051987;28;20024;-58
2022/09/16 12:04:57;;;;;;;1.48;0.30;;;21.10;57.20;;;;;;5054089;28;20020;-58
2022/09/16 12:07:37;;;;;;;1.30;0.47;;;20.80;57.90;;;;;;5061237;28;20075;-58
2022/09/16 12:10:16;;;;;;;1.75;0.30;;;20.50;58.50;;;;;;5055212;28;20021;-58
2022/09/16 12:12:46;;;;;;;2.35;0.38;;;20.40;59.00;;;;;;5046995;28;20032;-58
2022/09/16 12:15:24;;;;;;;0.60;0.30;;;20.30;59.40;;;;;;5051766;28;20548;-58
2022/09/16 12:17:54;;;;;;;0.82;0.20;;;20.20;59.70;;;;;;5048725;28;20032;-57
2022/09/16 12:20:32;;;;;;;0.82;0.30;;;20.20;60.00;;;;;;5051534;28;20114;-58
2022/09/16 12:23:13;;;;;;;1.10;0.30;;;20.30;60.00;;;;;;5051434;28;20032;-58
2022/09/16 12:26:01;;;;;;;0.88;0.45;;;20.40;59.90;;;;;;5051582;28;20020;-58
2022/09/16 12:28:39;;;;;;;1.80;0.30;;;20.40;60.10;;;;;;5047853;28;20455;-58
2022/09/16 12:31:13;;;;;;;0.90;0.20;;;21.10;60.10;;;;;;5050270;28;20028;-58
2022/09/16 12:33:51;;;;;;;1.23;0.40;;;22.80;58.90;;;;;;5051058;28;20013;-58
2022/09/16 12:36:23;;;;;;;1.67;0.40;;;24.90;55.10;;;;;;5051598;28;20103;-58
2022/09/16 12:38:48;;;;;;;1.45;0.30;;;26.30;51.80;;;;;;5050192;28;20025;-58
2022/09/16 12:41:31;;;;;;;0.73;0.40;;;27.80;49.70;;;;;;5050105;28;20554;-58
2022/09/16 12:44:18;;;;;;;1.38;0.40;;;29.70;47.20;;;;;;5050633;28;20503;-57
2022/09/16 12:46:59;;;;;;;1.60;0.40;;;31.00;44.80;;;;;;5048102;28;20500;-58
2022/09/16 12:49:45;;;;;;;1.55;0.60;;;31.60;44.00;;;;;;5050922;28;20035;-58
2022/09/16 12:52:23;;;;;;;1.27;0.40;;;32.60;43.00;;;;;;5046043;28;20021;-59
2022/09/16 12:55:33;;;;;;;3.10;0.60;;;33.10;41.80;;;;;;5064808;28;20021;-58
2022/09/16 12:58:13;;;;;;;1.02;0.40;;;33.10;40.00;;;;;;5050292;28;20028;-58
2022/09/16 13:00:50;;;;;;;1.52;0.43;;;32.30;40.50;;;;;;5050575;28;20021;-58
2022/09/16 13:03:20;;;;;;;1.63;0.43;;;31.40;41.50;;;;;;5050725;28;20116;-62
2022/09/16 13:05:49;;;;;;;1.02;0.40;;;30.70;42.20;;;;;;5055085;28;20025;-59
2022/09/16 13:08:24;;;;;;;3.25;0.38;;;30.80;42.10;;;;;;5055611;28;20109;-58
2022/09/16 13:10:59;;;;;;;1.10;0.32;;;31.30;41.70;;;;;;5053597;28;20554;-58
2022/09/16 13:13:30;;;;;;;1.25;0.50;;;31.80;40.90;;;;;;5051545;28;20128;-58
2022/09/16 13:15:59;;;;;;;2.63;0.52;;;32.00;40.20;;;;;;5052895;28;20107;-59
2022/09/16 13:18:38;;;;;;;;;;;32.10;39.90;;;;;;5055971;28;20108;-59
2022/09/16 13:21:27;;;;;;;1.10;0.43;;;32.10;39.70;;;;;;5067980;28;20004;-59